Map

Track Data

SID SEASON NUMBER BASIN SUBBASIN NAME ISO_TIME NATURE LAT LON WMO_WIND WMO_PRES WMO_AGENCY TRACK_TYPE DIST2LAND LANDFALL IFLAG USA_AGENCY USA_ATCF_ID USA_LAT USA_LON USA_RECORD USA_STATUS USA_WIND USA_PRES USA_SSHS USA_R34_NE USA_R34_SE USA_R34_SW USA_R34_NW USA_R50_NE USA_R50_SE USA_R50_SW USA_R50_NW USA_R64_NE USA_R64_SE USA_R64_SW USA_R64_NW USA_POCI USA_ROCI USA_RMW USA_EYE TOKYO_LAT TOKYO_LON TOKYO_GRADE TOKYO_WIND TOKYO_PRES TOKYO_R50_DIR TOKYO_R50_LONG TOKYO_R50_SHORT TOKYO_R30_DIR TOKYO_R30_LONG TOKYO_R30_SHORT TOKYO_LAND CMA_LAT CMA_LON CMA_CAT CMA_WIND CMA_PRES HKO_LAT HKO_LON HKO_CAT HKO_WIND HKO_PRES NEWDELHI_LAT NEWDELHI_LON NEWDELHI_GRADE NEWDELHI_WIND NEWDELHI_PRES NEWDELHI_CI NEWDELHI_DP NEWDELHI_POCI REUNION_LAT REUNION_LON REUNION_TYPE REUNION_WIND REUNION_PRES REUNION_TNUM REUNION_CI REUNION_RMW REUNION_R34_NE REUNION_R34_SE REUNION_R34_SW REUNION_R34_NW REUNION_R50_NE REUNION_R50_SE REUNION_R50_SW REUNION_R50_NW REUNION_R64_NE REUNION_R64_SE REUNION_R64_SW REUNION_R64_NW BOM_LAT BOM_LON BOM_TYPE BOM_WIND BOM_PRES BOM_TNUM BOM_CI BOM_RMW BOM_R34_NE BOM_R34_SE BOM_R34_SW BOM_R34_NW BOM_R50_NE BOM_R50_SE BOM_R50_SW BOM_R50_NW BOM_R64_NE BOM_R64_SE BOM_R64_SW BOM_R64_NW BOM_ROCI BOM_POCI BOM_EYE BOM_POS_METHOD BOM_PRES_METHOD NADI_LAT NADI_LON NADI_CAT NADI_WIND NADI_PRES WELLINGTON_LAT WELLINGTON_LON WELLINGTON_WIND WELLINGTON_PRES DS824_LAT DS824_LON DS824_STAGE DS824_WIND DS824_PRES TD9636_LAT TD9636_LON TD9636_STAGE TD9636_WIND TD9636_PRES TD9635_LAT TD9635_LON TD9635_WIND TD9635_PRES TD9635_ROCI NEUMANN_LAT NEUMANN_LON NEUMANN_CLASS NEUMANN_WIND NEUMANN_PRES MLC_LAT MLC_LON MLC_CLASS MLC_WIND MLC_PRES USA_GUST BOM_GUST BOM_GUST_PER REUNION_GUST REUNION_GUST_PER USA_SEAHGT USA_SEARAD_NE USA_SEARAD_SE USA_SEARAD_SW USA_SEARAD_NW STORM_SPEED STORM_DIR
1928107S16061 1928 26 SI MM NOT_NAMED 1928-04-16 06:00:00 NR -15.8000 60.6000 reunion main 570 570 _____O________ -1 -15.8000 60.6000 99 9.90000 0 0
1928107S16061 1928 26 SI MM NOT_NAMED 1928-04-16 09:00:00 NR -15.8077 60.6028 main 570 570 _____P________ -1 -15.8077 60.6028 99 0 0
1928107S16061 1928 26 SI MM NOT_NAMED 1928-04-16 12:00:00 NR -15.8182 60.5982 main 570 570 _____P________ -1 -15.8182 60.5982 99 0 0
1928107S16061 1928 26 SI MM NOT_NAMED 1928-04-16 15:00:00 NR -15.8344 60.5788 main 570 555 _____P________ -1 -15.8344 60.5788 99 1 233
1928107S16061 1928 26 SI MM NOT_NAMED 1928-04-16 18:00:00 NR -15.8592 60.5372 main 555 555 _____P________ -1 -15.8592 60.5372 99 1 241
1928107S16061 1928 26 SI MM NOT_NAMED 1928-04-16 21:00:00 NR -15.8953 60.4659 main 555 549 _____P________ -1 -15.8953 60.4659 99 2 244
1928107S16061 1928 26 SI MM NOT_NAMED 1928-04-17 00:00:00 NR -15.9456 60.3577 main 549 529 _____P________ -1 -15.9456 60.3577 99 3 245
1928107S16061 1928 26 SI MM NOT_NAMED 1928-04-17 03:00:00 NR -16.0130 60.2048 main 529 519 _____P________ -1 -16.0130 60.2048 99 4 262
1928107S16061 1928 26 SI MM NOT_NAMED 1928-04-17 06:00:00 TS -16.0000 59.9667 reunion main 519 490 _____O___OO___ -1 -16.1000 60.0000 99 9.90000 -15.8000 59.9000 TC 35 -15.8000 59.9000 2 6 265
1928107S16061 1928 26 SI MM NOT_NAMED 1928-04-17 09:00:00 TS -16.0604 59.6167 main 490 478 _____P___PP___ -1 -16.2086 59.7380 99 -15.8877 59.4900 TC 35 -15.9368 59.5008 2 7 258
1928107S16061 1928 26 SI MM NOT_NAMED 1928-04-17 12:00:00 TS -16.1555 59.2325 main 464 443 _____P___OP___ -1 -16.3373 59.4231 99 -16.0000 59.1000 TC 35 -16.0685 59.1110 2 8 254
1928107S16061 1928 26 SI MM NOT_NAMED 1928-04-17 15:00:00 TS -16.2748 58.8484 main 440 422 _____P___PP___ -1 -16.4836 59.0620 99 -16.1499 58.7425 TC 35 -16.1910 58.7407 2 8 250
1928107S16061 1928 26 SI MM NOT_NAMED 1928-04-17 18:00:00 TS -16.4151 58.4872 main 422 404 _____P___OO___ -1 -16.6453 58.6616 99 -16.3000 58.4000 TC 35 -16.3000 58.4000 2 7 249
1928107S16061 1928 26 SI MM NOT_NAMED 1928-04-17 21:00:00 TS -16.5386 58.1210 main 404 380 _____P___PP___ -1 -16.8200 58.2284 99 -16.4000 58.0424 TC 35 -16.3959 58.0923 2 7 250
1928107S16061 1928 26 SI MM NOT_NAMED 1928-04-18 00:00:00 TS -16.6673 57.7543 main 380 369 _____P___OP___ -1 -17.0055 57.7692 99 -16.5000 57.7000 TC 35 -16.4965 57.7937 2 7 248
1928107S16061 1928 26 SI MM NOT_NAMED 1928-04-18 03:00:00 TS -16.8144 57.3955 main 369 349 _____P___PP___ -1 -17.1996 57.2909 99 -16.6198 57.4222 TC 35 -16.6239 57.4733 2 8 245
1928107S16061 1928 26 SI MM NOT_NAMED 1928-04-18 06:00:00 TS -17.0000 57.0000 reunion main 350 335 _____O___OO___ -1 -17.4000 56.8000 99 9.90000 -16.8000 57.1000 TC 35 -16.8000 57.1000 2 9 242
1928107S16061 1928 26 SI MM NOT_NAMED 1928-04-18 09:00:00 TS -17.2458 56.5343 main 341 326 _____P___PP___ -1 -17.5980 56.3201 99 -17.0775 56.6376 TC 35 -17.0619 56.6452 2 11 241
1928107S16061 1928 26 SI MM NOT_NAMED 1928-04-18 12:00:00 TS -17.5250 56.0177 main 330 321 _____P___OP___ -1 -17.8050 55.8200 99 -17.4000 56.1000 TC 35 -17.3699 56.1331 2 12 241
1928107S16061 1928 26 SI MM NOT_NAMED 1928-04-18 15:00:00 TS -17.8063 55.4831 main 332 325 _____P___PP___ -1 -18.0185 55.3051 99 -17.7073 55.5649 TC 35 -17.6930 55.5794 2 12 242
1928107S16061 1928 26 SI MM NOT_NAMED 1928-04-18 18:00:00 TS -18.0787 54.9269 main 327 313 _____P___OO___ -1 -18.2360 54.7807 99 -18.0000 55.0000 TC 35 -18.0000 55.0000 2 12 244
1928107S16061 1928 26 SI MM NOT_NAMED 1928-04-18 21:00:00 TS -18.3236 54.3563 main 316 309 _____P___PP___ -1 -18.4552 54.2525 99 -18.2649 54.4074 TC 35 -18.2506 54.4090 2 12 247
1928107S16061 1928 26 SI MM NOT_NAMED 1928-04-19 00:00:00 TS -18.5513 53.7751 main 310 310 _____P___OP___ -1 -18.6737 53.7259 99 -18.5000 53.8000 TC 35 -18.4800 53.7995 2 12 248
1928107S16061 1928 26 SI MM NOT_NAMED 1928-04-19 03:00:00 TS -18.7637 53.1964 main 329 329 _____P___PP___ -1 -18.8894 53.2065 99 -18.7074 53.1923 TC 35 -18.6944 53.1902 2 12 249
1928107S16061 1928 26 SI MM NOT_NAMED 1928-04-19 06:00:00 TS -18.9667 52.6333 reunion main 348 301 _____O___OO___ -1 -19.1000 52.7000 99 9.90000 -18.9000 52.6000 TC 35 -18.9000 52.6000 2 11 249
1928107S16061 1928 26 SI MM NOT_NAMED 1928-04-19 09:00:00 TS -19.1663 52.0898 main 305 261 _____P___PP___ -1 -19.3009 52.1697 99 -19.0998 52.0349 TC 35 -19.0980 52.0647 2 11 249
1928107S16061 1928 26 SI MM NOT_NAMED 1928-04-19 12:00:00 TS -19.3631 51.5639 main 264 217 _____P___OP___ -1 -19.4983 51.6430 99 -19.3000 51.5000 TC 35 -19.2911 51.5487 2 11 248
1928107S16061 1928 26 SI MM NOT_NAMED 1928-04-19 15:00:00 TS -19.5601 51.0568 main 220 175 _____P___PP___ -1 -19.6919 51.1296 99 -19.4997 51.0073 TC 35 -19.4887 51.0334 2 10 247
1928107S16061 1928 26 SI MM NOT_NAMED 1928-04-19 18:00:00 TS -19.7605 50.5464 main 170 125 _____P___OO___ -1 -19.8816 50.6391 99 -19.7000 50.5000 TC 35 -19.7000 50.5000 2 11 248
1928107S16061 1928 26 SI MM NOT_NAMED 1928-04-19 21:00:00 TS -19.9698 49.9778 main 125 66 _____P___PP___ -1 -20.0672 50.1811 99 -19.8849 49.9147 TC 35 -19.9572 49.8375 2 12 248
1928107S16061 1928 26 SI MM NOT_NAMED 1928-04-20 00:00:00 TS -20.1910 49.4107 main 66 30 _____P___OP___ -1 -20.2488 49.7653 99 -20.1000 49.3000 TC 35 -20.2243 49.1668 2 11 246
1928107S16061 1928 26 SI MM NOT_NAMED 1928-04-20 03:00:00 TS -20.4403 48.8632 main 30 0 _____P___PP___ -1 -20.4264 49.4017 99 -20.4153 48.6255 TC 35 -20.4791 48.5625 2 10 243
1928107S16061 1928 26 SI MM NOT_NAMED 1928-04-20 06:00:00 TS -20.6667 48.4333 reunion main 0 0 _____O___OO___ -1 -20.6000 49.1000 99 9.90000 -20.7000 48.1000 TC 35 -20.7000 48.1000 2 7 238
1928107S16061 1928 26 SI MM NOT_NAMED 1928-04-20 09:00:00 TS -20.8218 48.2126 main 0 0 _____P___PP___ -1 -20.7795 48.8558 99 -20.8221 47.9171 TC 35 -20.8637 47.8648 2 4 226
1928107S16061 1928 26 SI MM NOT_NAMED 1928-04-20 12:00:00 TS -20.9501 48.1160 main 0 0 _____P___OP___ -1 -20.9566 48.6718 99 -20.9000 47.9000 TC 35 -20.9935 47.7762 2 3 208
1928107S16061 1928 26 SI MM NOT_NAMED 1928-04-20 15:00:00 TS -21.0940 48.0530 main 0 0 _____P___PP___ -1 -21.1302 48.5420 99 -21.0500 47.8425 TC 35 -21.1017 47.7745 2 3 197
1928107S16061 1928 26 SI MM NOT_NAMED 1928-04-20 18:00:00 TS -21.2330 48.0202 main 0 0 _____P___OO___ -1 -21.2989 48.4606 99 -21.2000 47.8000 TC 35 -21.2000 47.8000 2 3 196
1928107S16061 1928 26 SI MM NOT_NAMED 1928-04-20 21:00:00 TS -21.3547 47.9655 main 0 0 _____P___PP___ -1 -21.4616 48.4217 99 -21.3075 47.7425 TC 35 -21.2949 47.7323 2 2 199
1928107S16061 1928 26 SI MM NOT_NAMED 1928-04-21 00:00:00 TS -21.4673 47.9340 main 0 0 _____P___OP___ -1 -21.6170 48.4192 99 -21.4000 47.7000 TC 35 -21.3849 47.6827 2 2 192
1928107S16061 1928 26 SI MM NOT_NAMED 1928-04-21 03:00:00 TS -21.5770 47.9306 main 0 0 _____P___PP___ -1 -21.7635 48.4474 99 -21.4850 47.6775 TC 35 -21.4824 47.6668 2 2 169
1928107S16061 1928 26 SI MM NOT_NAMED 1928-04-21 06:00:00 TS -21.7000 47.9667 reunion main 0 0 _____O___OO___ -1 -21.9000 48.5000 99 9.90000 -21.6000 47.7000 TC 35 -21.6000 47.7000 2 3 164
1928107S16061 1928 26 SI MM NOT_NAMED 1928-04-21 09:00:00 TS -21.8492 48.0191 main 0 0 _____P___PP___ -1 -21.9976 48.4959 99 -21.7925 47.7700 TC 35 -21.7575 47.7914 2 3 156
1928107S16061 1928 26 SI MM NOT_NAMED 1928-04-21 12:00:00 TS -22.0055 48.1167 main 0 0 _____P___OP___ -1 -22.0815 48.5178 99 -22.0000 47.9000 TC 35 -21.9350 47.9323 2 4 144
1928107S16061 1928 26 SI MM NOT_NAMED 1928-04-21 15:00:00 TS -22.1455 48.2538 main 23 23 _____P___PP___ -1 -22.1589 48.5694 99 -22.1575 48.0850 TC 35 -22.1200 48.1071 2 4 134
1928107S16061 1928 26 SI MM NOT_NAMED 1928-04-21 18:00:00 TS -22.2790 48.4181 main 42 42 _____P___OO___ -1 -22.2371 48.6542 99 -22.3000 48.3000 TC 35 -22.3000 48.3000 2 4 132
1928107S16061 1928 26 SI MM NOT_NAMED 1928-04-21 21:00:00 TS -22.4086 48.5725 main 65 65 _____P___PP___ -1 -22.3232 48.7759 99 -22.4500 48.5000 TC 35 -22.4526 48.4415 2 4 131
1928107S16061 1928 26 SI MM NOT_NAMED 1928-04-22 00:00:00 TS -22.5412 48.7472 main 79 79 _____P___OP___ -1 -22.4244 48.9383 99 -22.6000 48.7000 TC 35 -22.5991 48.6034 2 4 128
1928107S16061 1928 26 SI MM NOT_NAMED 1928-04-22 03:00:00 TS -22.6787 48.9404 main 105 105 _____P___PP___ -1 -22.5476 49.1450 99 -22.7423 48.8627 TC 35 -22.7461 48.8135 2 5 125
1928107S16061 1928 26 SI MM NOT_NAMED 1928-04-22 06:00:00 TS -22.8333 49.2000 reunion main 137 137 _____O___OO___ -1 -22.7000 49.4000 99 9.90000 -22.9000 49.1000 TC 35 -22.9000 49.1000 2 7 121
1928107S16061 1928 26 SI MM NOT_NAMED 1928-04-22 09:00:00 TS -23.0279 49.5795 main 183 183 _____P___PP___ -1 -22.9152 49.7218 99 -23.1001 49.5049 TC 35 -23.0686 49.5118 2 9 118
1928107S16061 1928 26 SI MM NOT_NAMED 1928-04-22 12:00:00 TS -23.2342 50.0318 main 227 227 _____P___OP___ -1 -23.1591 50.0984 99 -23.3000 50.0000 TC 35 -23.2436 49.9971 2 9 115
1928107S16061 1928 26 SI MM NOT_NAMED 1928-04-22 15:00:00 TS -23.4344 50.5113 main 281 281 _____P___PP___ -1 -23.4240 50.5175 99 -23.4575 50.5076 TC 35 -23.4217 50.5088 2 10 114
1928107S16061 1928 26 SI MM NOT_NAMED 1928-04-22 18:00:00 TS -23.6341 50.9888 main 336 336 _____P___OO___ -1 -23.7022 50.9663 99 -23.6000 51.0000 TC 35 -23.6000 51.0000 2 9 116
1928107S16061 1928 26 SI MM NOT_NAMED 1928-04-22 21:00:00 TS -23.8343 51.4197 main 379 379 _____P___PP___ -1 -23.9862 51.4321 99 -23.7423 51.4227 TC 35 -23.7743 51.4042 2 9 118
1928107S16061 1928 26 SI MM NOT_NAMED 1928-04-23 00:00:00 TS -24.0392 51.8275 main 422 422 _____P___OP___ -1 -24.2686 51.9018 99 -23.9000 51.8000 TC 35 -23.9492 51.7806 2 8 120
1928107S16061 1928 26 SI MM NOT_NAMED 1928-04-23 03:00:00 TS -24.2555 52.2180 main 461 443 _____P___PP___ -1 -24.5422 52.3623 99 -24.0998 52.1500 TC 35 -24.1244 52.1417 2 8 121
1928107S16061 1928 26 SI MM NOT_NAMED 1928-04-23 06:00:00 TS -24.4667 52.6000 reunion main 452 437 _____O___OO___ -1 -24.8000 52.8000 99 9.90000 -24.3000 52.5000 TC 35 -24.3000 52.5000 2 8 120
1928107S16061 1928 26 SI MM NOT_NAMED 1928-04-23 09:00:00 TS -24.6570 52.9941 main 446 436 _____P___PP___ -1 -25.0379 53.1989 99 -24.4500 52.9002 TC 35 -24.4830 52.8832 2 8 118
1928107S16061 1928 26 SI MM NOT_NAMED 1928-04-23 12:00:00 TS -24.8437 53.3833 main 436 436 _____P___OP___ -1 -25.2663 53.5850 99 -24.6000 53.3000 TC 35 -24.6648 53.2650 2 8 119
1928107S16061 1928 26 SI MM NOT_NAMED 1928-04-23 15:00:00 TS -25.0406 53.7528 main 441 441 _____P___PP___ -1 -25.4826 53.9541 99 -24.7999 53.6650 TC 35 -24.8393 53.6394 2 8 121
1928107S16061 1928 26 SI MM NOT_NAMED 1928-04-23 18:00:00 TS -25.2282 54.1008 main 451 451 _____P___OO___ -1 -25.6846 54.3023 99 -25.0000 54.0000 TC 35 -25.0000 54.0000 2 7 120
1928107S16061 1928 26 SI MM NOT_NAMED 1928-04-23 21:00:00 TS -25.3924 54.4226 main 463 460 _____P___PP___ -1 -25.8697 54.6252 99 -25.1648 54.3001 TC 35 -25.1427 54.3424 2 7 121
1928107S16061 1928 26 SI MM NOT_NAMED 1928-04-24 00:00:00 TS -25.5853 54.7484 main 478 476 _____P___OP___ -1 -26.0356 54.9187 99 -25.3000 54.6000 TC 35 -25.2704 54.6698 2 7 124
1928107S16061 1928 26 SI MM NOT_NAMED 1928-04-24 03:00:00 TS -25.7888 55.0703 main 494 493 _____P___PP___ -1 -26.1798 55.1784 99 -25.4077 54.9374 TC 35 -25.3879 54.9872 2 7 129
1928107S16061 1928 26 SI MM NOT_NAMED 1928-04-24 06:00:00 TS -26.0333 55.3667 reunion main 514 514 _____O___OO___ -1 -26.3000 55.4000 99 9.90000 -25.5000 55.3000 TC 35 -25.5000 55.3000 2 8 143
1928107S16061 1928 26 SI MM NOT_NAMED 1928-04-24 09:00:00 NR -26.3948 55.5809 main 558 558 _____P________ -1 -26.3948 55.5809 99 TC 2 5 143
1928107S16061 1928 26 SI MM NOT_NAMED 1928-04-24 12:00:00 NR -26.4665 55.7245 main 570 570 _____P________ -1 -26.4665 55.7245 99 2 3 119
1928107S16061 1928 26 SI MM NOT_NAMED 1928-04-24 15:00:00 NR -26.5186 55.8362 main 570 570 _____P________ -1 -26.5186 55.8362 99 2 2 116
1928107S16061 1928 26 SI MM NOT_NAMED 1928-04-24 18:00:00 NR -26.5544 55.9211 main 581 581 _____P________ -1 -26.5544 55.9211 99 1 114
1928107S16061 1928 26 SI MM NOT_NAMED 1928-04-24 21:00:00 NR -26.5772 55.9846 main 582 582 _____P________ -1 -26.5772 55.9846 99 1 110
1928107S16061 1928 26 SI MM NOT_NAMED 1928-04-25 00:00:00 NR -26.5902 56.0320 main 582 582 _____P________ -1 -26.5902 56.0320 99 1 104
1928107S16061 1928 26 SI MM NOT_NAMED 1928-04-25 03:00:00 NR -26.5967 56.0687 main 583 583 _____P________ -1 -26.5967 56.0687 99 1 100
1928107S16061 1928 26 SI MM NOT_NAMED 1928-04-25 06:00:00 NR -26.6000 56.1000 reunion main 583 _____O________ -1 -26.6000 56.1000 99 9.90000 1 95

About IBTrACS Database

This database is a web-friendly format of International Best Track Archive for Climate Stewardship (IBTrACS), a global best track data archive curated by NOAA dating back to 1842.

Updated: 2021-12-01